Terminal Aerodrome Forecast
Issued by NWS

Home | Current Version | Previous Version | Text Only | Print | Product List | Glossary On
Versions: 1 2 3 4 5 6 7 8 9 10 11 12
000
FTUS46 KPDT 012330
TAFALW
TAF
KALW 012330Z 0200/0224 25009KT P6SM FEW250
     FM020300 14009KT P6SM FEW180 SCT250
     FM021200 19008KT P6SM FEW150 SCT200
     FM021600 24007KT P6SM FEW150 SCT200=

USA.gov is the U.S. government's official web portal to all federal, state and local government web resources and services.